Time;durP1;ratioP1;P1;durP2;ratioP2;P2;SDS_P1;SDS_P2;PMS_P1;PMS_P2;Temp;Humidity;BMP_temperature;BMP_pressure;BME280_temperature;BME280_humidity;BME280_pressure;Samples;Min_cycle;Max_cycle;Signal;HPM_P1;HPM_P2
2023/12/20 00:02:19;;;;;;;6.35;4.22;;;;;;;;;;5039001;28;20034;-78
2023/12/20 00:04:44;;;;;;;6.70;4.07;;;;;;;;;;5041923;28;20064;-77
2023/12/20 00:07:09;;;;;;;6.07;4.03;;;;;;;;;;5035783;28;20037;-77
2023/12/20 00:09:34;;;;;;;6.47;4.32;;;;;;;;;;5033937;28;20116;-77
2023/12/20 00:12:00;;;;;;;6.90;3.90;;;;;;;;;;5031943;28;20038;-78
2023/12/20 00:14:25;;;;;;;7.47;4.63;;;;;;;;;;5037143;28;20037;-78
2023/12/20 00:16:50;;;;;;;5.80;3.40;;;;;;;;;;5037857;28;20033;-78
2023/12/20 00:19:15;;;;;;;6.68;4.90;;;;;;;;;;5040656;28;20021;-78
2023/12/20 00:21:40;;;;;;;6.60;3.47;;;;;;;;;;5040563;28;20044;-78
2023/12/20 00:24:06;;;;;;;6.75;3.97;;;;;;;;;;5031366;28;20030;-78
2023/12/20 00:26:31;;;;;;;6.28;4.07;;;;;;;;;;5034612;28;20032;-78
2023/12/20 00:28:56;;;;;;;7.15;4.10;;;;;;;;;;5038405;28;20111;-78
2023/12/20 00:31:21;;;;;;;7.05;4.22;;;;;;;;;;5038467;28;20068;-78
2023/12/20 00:33:47;;;;;;;6.50;3.60;;;;;;;;;;5041046;28;20039;-78
2023/12/20 00:36:12;;;;;;;6.32;4.07;;;;;;;;;;5042094;28;20038;-78
2023/12/20 00:38:37;;;;;;;7.00;4.30;;;;;;;;;;5038354;28;20723;-78
2023/12/20 00:41:02;;;;;;;7.28;5.43;;;;;;;;;;5048257;28;20029;-78
2023/12/20 00:43:27;;;;;;;5.55;3.95;;;;;;;;;;5044224;28;20040;-78
2023/12/20 00:45:53;;;;;;;9.32;4.82;;;;;;;;;;5040120;28;20042;-78
2023/12/20 00:48:18;;;;;;;6.45;4.25;;;;;;;;;;5043315;28;20650;-78
2023/12/20 00:50:43;;;;;;;7.07;4.68;;;;;;;;;;5039483;28;20532;-78
2023/12/20 00:53:08;;;;;;;7.03;4.43;;;;;;;;;;5038821;28;20074;-78
2023/12/20 00:55:33;;;;;;;6.38;4.07;;;;;;;;;;5041386;28;20032;-78
2023/12/20 00:58:00;;;;;;;6.47;4.35;;;;;;;;;;5040156;28;20548;-78
2023/12/20 01:00:25;;;;;;;6.97;3.97;;;;;;;;;;5041642;28;20459;-78
2023/12/20 01:02:51;;;;;;;6.20;3.75;;;;;;;;;;5039173;28;20033;-78
2023/12/20 01:05:17;;;;;;;7.32;4.15;;;;;;;;;;5043477;28;20029;-78
2023/12/20 01:07:42;;;;;;;6.93;3.83;;;;;;;;;;5040303;28;20374;-78
2023/12/20 01:10:08;;;;;;;6.45;3.65;;;;;;;;;;5043672;28;20033;-78
2023/12/20 01:12:33;;;;;;;7.35;4.07;;;;;;;;;;5040299;28;20025;-78
2023/12/20 01:14:58;;;;;;;6.60;4.03;;;;;;;;;;5038393;28;20060;-78
2023/12/20 01:17:23;;;;;;;6.95;4.47;;;;;;;;;;5040520;28;20037;-77
2023/12/20 01:19:48;;;;;;;6.40;4.13;;;;;;;;;;5045255;28;20033;-77
2023/12/20 01:22:13;;;;;;;6.95;4.15;;;;;;;;;;5036934;28;20406;-78
2023/12/20 01:24:39;;;;;;;7.45;3.97;;;;;;;;;;5043468;28;20036;-77
2023/12/20 01:27:04;;;;;;;5.80;3.70;;;;;;;;;;5038705;28;20033;-77
2023/12/20 01:29:29;;;;;;;6.90;4.00;;;;;;;;;;5038153;28;20044;-77
2023/12/20 01:31:55;;;;;;;7.95;3.92;;;;;;;;;;5034653;28;20025;-77
2023/12/20 01:34:20;;;;;;;5.80;3.65;;;;;;;;;;5038626;28;20108;-78
2023/12/20 01:36:46;;;;;;;5.88;3.85;;;;;;;;;;5043306;28;20114;-77
2023/12/20 01:39:11;;;;;;;6.07;3.63;;;;;;;;;;5039758;28;20076;-78
2023/12/20 01:41:36;;;;;;;5.93;3.85;;;;;;;;;;5041290;28;20025;-78
2023/12/20 01:44:01;;;;;;;6.90;4.40;;;;;;;;;;5035643;28;20497;-78
2023/12/20 01:46:26;;;;;;;6.82;4.45;;;;;;;;;;5036790;28;20034;-78
2023/12/20 01:48:52;;;;;;;6.55;3.90;;;;;;;;;;5045071;28;20040;-78
2023/12/20 01:51:17;;;;;;;6.47;3.97;;;;;;;;;;5040355;28;20079;-78
2023/12/20 01:53:43;;;;;;;7.82;4.03;;;;;;;;;;5041867;28;20021;-78
2023/12/20 01:56:09;;;;;;;6.25;3.83;;;;;;;;;;5038910;28;20127;-78
2023/12/20 01:58:34;;;;;;;6.35;4.00;;;;;;;;;;5037593;28;20029;-78
2023/12/20 02:00:59;;;;;;;7.43;3.70;;;;;;;;;;5035046;28;20557;-78
2023/12/20 02:03:24;;;;;;;5.60;3.45;;;;;;;;;;5033507;28;20037;-78
2023/12/20 02:05:50;;;;;;;6.97;3.88;;;;;;;;;;5043275;28;20052;-78
2023/12/20 02:08:15;;;;;;;8.07;4.32;;;;;;;;;;5037555;28;20521;-78
2023/12/20 02:10:40;;;;;;;7.75;4.30;;;;;;;;;;5042901;28;20452;-78
2023/12/20 02:13:06;;;;;;;5.68;3.65;;;;;;;;;;5018156;28;20528;-78
2023/12/20 02:15:31;;;;;;;5.70;3.85;;;;;;;;;;5043141;28;20029;-78
2023/12/20 02:17:56;;;;;;;6.65;4.15;;;;;;;;;;5045655;28;20041;-78
2023/12/20 02:20:21;;;;;;;6.32;3.90;;;;;;;;;;5042832;28;20045;-78
2023/12/20 02:22:46;;;;;;;8.75;4.25;;;;;;;;;;5040563;28;20057;-78
2023/12/20 02:25:12;;;;;;;6.35;3.92;;;;;;;;;;5036362;28;20404;-78
2023/12/20 02:27:38;;;;;;;5.82;3.65;;;;;;;;;;5041376;28;20501;-78
2023/12/20 02:30:03;;;;;;;7.10;3.60;;;;;;;;;;5033634;28;20033;-78
2023/12/20 02:32:28;;;;;;;5.88;3.28;;;;;;;;;;5033583;28;20513;-78
2023/12/20 02:34:54;;;;;;;6.03;2.92;;;;;;;;;;5040032;28;20033;-78
2023/12/20 02:37:19;;;;;;;4.93;3.05;;;;;;;;;;5042597;28;20112;-78
2023/12/20 02:39:45;;;;;;;6.63;3.83;;;;;;;;;;5036639;28;20026;-78
2023/12/20 02:42:10;;;;;;;5.93;3.75;;;;;;;;;;5034637;28;20029;-78
2023/12/20 02:44:36;;;;;;;5.10;3.15;;;;;;;;;;5033480;28;20393;-78
2023/12/20 02:47:01;;;;;;;5.63;3.28;;;;;;;;;;5042521;28;20945;-78
2023/12/20 02:49:26;;;;;;;5.82;3.28;;;;;;;;;;5047437;28;20049;-78
2023/12/20 02:51:51;;;;;;;4.88;2.40;;;;;;;;;;5037852;28;20029;-79
2023/12/20 02:54:17;;;;;;;4.97;2.70;;;;;;;;;;5039735;28;20024;-78
2023/12/20 02:56:42;;;;;;;4.40;2.65;;;;;;;;;;5038494;28;20045;-78
2023/12/20 02:59:08;;;;;;;4.70;3.03;;;;;;;;;;5032585;28;20072;-78
2023/12/20 03:01:34;;;;;;;5.20;2.95;;;;;;;;;;5042055;28;20024;-78
2023/12/20 03:03:59;;;;;;;5.63;2.95;;;;;;;;;;5041438;28;20523;-78
2023/12/20 03:06:24;;;;;;;5.25;3.03;;;;;;;;;;5038428;28;20115;-78
2023/12/20 03:08:49;;;;;;;4.72;2.92;;;;;;;;;;5034632;28;20028;-78
2023/12/20 03:11:14;;;;;;;7.06;2.92;;;;;;;;;;5037004;28;20505;-78
2023/12/20 03:13:40;;;;;;;4.57;3.00;;;;;;;;;;5042089;28;20087;-78
2023/12/20 03:16:08;;;;;;;5.05;2.70;;;;;;;;;;5038768;28;20045;-78
2023/12/20 03:18:34;;;;;;;3.85;1.98;;;;;;;;;;5045188;28;20032;-78
2023/12/20 03:20:59;;;;;;;4.25;2.47;;;;;;;;;;5035676;28;20092;-78
2023/12/20 03:23:24;;;;;;;4.32;2.20;;;;;;;;;;5033645;28;20037;-78
2023/12/20 03:25:49;;;;;;;4.10;2.40;;;;;;;;;;5036220;28;20041;-78
2023/12/20 03:28:15;;;;;;;4.22;2.38;;;;;;;;;;5035462;28;20060;-78
2023/12/20 03:30:40;;;;;;;4.35;2.38;;;;;;;;;;5039574;28;20033;-78
2023/12/20 03:33:05;;;;;;;3.55;2.25;;;;;;;;;;5036547;28;20444;-78
2023/12/20 03:35:31;;;;;;;3.85;1.83;;;;;;;;;;5036894;28;20033;-78
2023/12/20 03:37:56;;;;;;;3.58;2.10;;;;;;;;;;5031869;28;20117;-78
2023/12/20 03:40:22;;;;;;;4.60;2.17;;;;;;;;;;5032346;28;20037;-78
2023/12/20 03:42:47;;;;;;;3.92;2.03;;;;;;;;;;5038575;28;20062;-78
2023/12/20 03:45:12;;;;;;;4.05;2.40;;;;;;;;;;5038556;28;20033;-78
2023/12/20 03:47:37;;;;;;;5.50;3.47;;;;;;;;;;5041568;28;20124;-78
2023/12/20 03:50:03;;;;;;;4.28;2.00;;;;;;;;;;5036347;28;20033;-78
2023/12/20 03:52:28;;;;;;;3.85;2.47;;;;;;;;;;5032907;28;20057;-78
2023/12/20 03:54:53;;;;;;;3.84;2.22;;;;;;;;;;5030749;28;20065;-78
2023/12/20 03:57:18;;;;;;;3.70;2.08;;;;;;;;;;5043216;28;20036;-79
2023/12/20 03:59:43;;;;;;;3.33;1.85;;;;;;;;;;5040544;28;20417;-78
2023/12/20 04:02:09;;;;;;;5.03;2.10;;;;;;;;;;5036024;28;20124;-78
2023/12/20 04:04:34;;;;;;;3.88;2.10;;;;;;;;;;5047928;28;20032;-78
2023/12/20 04:06:59;;;;;;;3.90;2.30;;;;;;;;;;5036215;28;20037;-79
2023/12/20 04:09:24;;;;;;;3.63;2.03;;;;;;;;;;5044560;28;20109;-78
2023/12/20 04:11:49;;;;;;;3.60;2.20;;;;;;;;;;5038332;28;20033;-78
2023/12/20 04:14:14;;;;;;;4.28;2.45;;;;;;;;;;5037570;28;20052;-78
2023/12/20 04:16:40;;;;;;;3.67;2.10;;;;;;;;;;5034450;28;20029;-78
2023/12/20 04:19:05;;;;;;;3.92;2.25;;;;;;;;;;5040439;28;20037;-78
2023/12/20 04:21:30;;;;;;;4.93;2.63;;;;;;;;;;5035318;28;20037;-79
2023/12/20 04:23:55;;;;;;;4.63;2.40;;;;;;;;;;5040278;28;20401;-79
2023/12/20 04:26:20;;;;;;;4.97;2.15;;;;;;;;;;5043713;28;20037;-79
2023/12/20 04:28:45;;;;;;;2.90;1.75;;;;;;;;;;5040643;28;20478;-78
2023/12/20 04:31:11;;;;;;;4.78;2.70;;;;;;;;;;5038357;28;20026;-78
2023/12/20 04:33:36;;;;;;;4.63;2.33;;;;;;;;;;5037569;28;20039;-78
2023/12/20 04:36:01;;;;;;;3.97;2.03;;;;;;;;;;5040031;28;20112;-78
2023/12/20 04:38:26;;;;;;;4.80;2.47;;;;;;;;;;5046374;28;20041;-79
2023/12/20 04:40:51;;;;;;;8.07;2.72;;;;;;;;;;5042480;28;20033;-78
2023/12/20 04:43:17;;;;;;;4.60;2.53;;;;;;;;;;5037524;28;20053;-78
2023/12/20 04:45:42;;;;;;;3.88;2.00;;;;;;;;;;5038767;28;20044;-78
2023/12/20 04:48:07;;;;;;;5.35;2.85;;;;;;;;;;5043026;28;20037;-78
2023/12/20 04:50:33;;;;;;;4.65;2.33;;;;;;;;;;5039043;28;20033;-78
2023/12/20 04:52:58;;;;;;;4.82;2.50;;;;;;;;;;5041339;28;20111;-79
2023/12/20 04:55:23;;;;;;;5.53;2.20;;;;;;;;;;5041493;28;20707;-79
2023/12/20 04:57:48;;;;;;;4.00;2.28;;;;;;;;;;5038109;28;20036;-79
2023/12/20 05:00:15;;;;;;;3.92;2.42;;;;;;;;;;5043804;28;20421;-80
2023/12/20 05:02:40;;;;;;;4.43;2.72;;;;;;;;;;5043619;28;20726;-80
2023/12/20 05:05:06;;;;;;;4.80;2.53;;;;;;;;;;5035462;28;20117;-80
2023/12/20 05:07:31;;;;;;;4.43;2.30;;;;;;;;;;5043415;28;20053;-80
2023/12/20 05:09:56;;;;;;;4.70;2.58;;;;;;;;;;5042962;28;20112;-79
2023/12/20 05:12:21;;;;;;;3.47;2.08;;;;;;;;;;5042135;28;20033;-80
2023/12/20 05:14:46;;;;;;;4.72;2.15;;;;;;;;;;5037775;28;20026;-79
2023/12/20 05:17:11;;;;;;;4.80;2.30;;;;;;;;;;5035515;28;20041;-80
2023/12/20 05:19:37;;;;;;;8.77;2.38;;;;;;;;;;5051733;28;20514;-80
2023/12/20 05:22:02;;;;;;;5.38;2.90;;;;;;;;;;5041500;28;20115;-79
2023/12/20 05:24:27;;;;;;;6.22;3.10;;;;;;;;;;5037351;28;20030;-79
2023/12/20 05:26:53;;;;;;;5.63;2.45;;;;;;;;;;5041600;28;20033;-79
2023/12/20 05:29:18;;;;;;;4.38;2.47;;;;;;;;;;5039384;28;20113;-79
2023/12/20 05:31:43;;;;;;;5.00;2.83;;;;;;;;;;5034789;28;20489;-79
2023/12/20 05:34:08;;;;;;;5.45;2.38;;;;;;;;;;5041510;28;20017;-79
2023/12/20 05:36:33;;;;;;;5.50;2.28;;;;;;;;;;5042667;28;20072;-79
2023/12/20 05:38:58;;;;;;;4.95;2.10;;;;;;;;;;5040593;28;20026;-79
2023/12/20 05:41:24;;;;;;;5.00;2.22;;;;;;;;;;5038455;28;20702;-79
2023/12/20 05:43:49;;;;;;;4.32;2.58;;;;;;;;;;5037310;28;20021;-78
2023/12/20 05:46:14;;;;;;;4.65;2.78;;;;;;;;;;5036136;28;20030;-78
2023/12/20 05:48:39;;;;;;;4.75;2.35;;;;;;;;;;5050785;28;20035;-78
2023/12/20 05:51:05;;;;;;;5.43;3.05;;;;;;;;;;5042751;28;20021;-78
2023/12/20 05:53:30;;;;;;;4.65;3.03;;;;;;;;;;5029499;28;20037;-79
2023/12/20 05:55:55;;;;;;;5.30;2.88;;;;;;;;;;5036547;28;20034;-79
2023/12/20 05:58:20;;;;;;;4.35;2.45;;;;;;;;;;5037503;28;20442;-79
2023/12/20 06:00:45;;;;;;;5.00;2.53;;;;;;;;;;5044630;28;20040;-78
2023/12/20 06:03:11;;;;;;;5.65;3.42;;;;;;;;;;5039752;28;20037;-78
2023/12/20 06:05:36;;;;;;;8.95;5.35;;;;;;;;;;5040969;28;20025;-78
2023/12/20 06:08:02;;;;;;;5.20;3.33;;;;;;;;;;5036159;28;20490;-79
2023/12/20 06:10:28;;;;;;;6.20;3.35;;;;;;;;;;5038357;28;20033;-78
2023/12/20 06:12:53;;;;;;;5.50;3.15;;;;;;;;;;5033674;28;20033;-78
2023/12/20 06:15:18;;;;;;;6.00;3.83;;;;;;;;;;5040852;28;20037;-78
2023/12/20 06:17:43;;;;;;;7.10;4.38;;;;;;;;;;5044728;28;20057;-78
2023/12/20 06:20:09;;;;;;;7.10;4.22;;;;;;;;;;5043016;28;20401;-78
2023/12/20 06:22:35;;;;;;;6.25;4.22;;;;;;;;;;5039258;28;20057;-78
2023/12/20 06:25:00;;;;;;;6.47;3.83;;;;;;;;;;5033293;28;20079;-78
2023/12/20 06:27:26;;;;;;;6.97;4.43;;;;;;;;;;5043250;28;20025;-78
2023/12/20 06:29:51;;;;;;;8.73;4.72;;;;;;;;;;5041665;28;20017;-78
2023/12/20 06:32:16;;;;;;;9.50;4.20;;;;;;;;;;5038024;28;20062;-78
2023/12/20 06:34:41;;;;;;;7.55;4.43;;;;;;;;;;5042334;28;20092;-78
2023/12/20 06:37:07;;;;;;;9.13;5.25;;;;;;;;;;5043601;28;20025;-78
2023/12/20 06:39:33;;;;;;;6.28;3.80;;;;;;;;;;5042509;28;20060;-78
2023/12/20 06:41:59;;;;;;;7.05;4.32;;;;;;;;;;5047968;28;20185;-78
2023/12/20 06:44:24;;;;;;;5.82;3.70;;;;;;;;;;5049122;28;20078;-78
2023/12/20 06:46:49;;;;;;;7.10;3.80;;;;;;;;;;5044566;28;20082;-78
2023/12/20 06:49:14;;;;;;;6.88;3.92;;;;;;;;;;5047458;28;20032;-78
2023/12/20 06:51:40;;;;;;;7.57;4.53;;;;;;;;;;5043756;28;20078;-78
2023/12/20 06:54:05;;;;;;;5.20;3.53;;;;;;;;;;5043568;28;20032;-78
2023/12/20 06:56:30;;;;;;;4.82;3.05;;;;;;;;;;5042685;28;20025;-79
2023/12/20 06:58:55;;;;;;;5.47;3.72;;;;;;;;;;5046484;28;20060;-78
2023/12/20 07:01:20;;;;;;;6.10;4.20;;;;;;;;;;5047519;28;20057;-78
2023/12/20 07:03:46;;;;;;;5.40;3.88;;;;;;;;;;5046436;28;20037;-78
2023/12/20 07:06:11;;;;;;;8.38;4.35;;;;;;;;;;5046980;28;20698;-78
2023/12/20 07:08:36;;;;;;;10.93;6.50;;;;;;;;;;5039825;28;20065;-78
2023/12/20 07:11:01;;;;;;;9.65;4.88;;;;;;;;;;5041750;28;20043;-78
2023/12/20 07:13:27;;;;;;;10.27;6.45;;;;;;;;;;5045681;28;20497;-78
2023/12/20 07:15:52;;;;;;;6.03;3.53;;;;;;;;;;5052031;28;20039;-78
2023/12/20 07:18:17;;;;;;;9.45;4.57;;;;;;;;;;5049304;28;20036;-78
2023/12/20 07:20:43;;;;;;;7.20;4.05;;;;;;;;;;5041606;28;20467;-78
2023/12/20 07:23:08;;;;;;;9.30;3.95;;;;;;;;;;5042021;28;20041;-78
2023/12/20 07:25:33;;;;;;;6.90;4.25;;;;;;;;;;5042505;28;20044;-77
2023/12/20 07:27:58;;;;;;;7.53;4.32;;;;;;;;;;5045720;28;20452;-78
2023/12/20 07:30:24;;;;;;;7.55;3.15;;;;;;;;;;5048432;28;20455;-78
2023/12/20 07:32:49;;;;;;;4.40;2.47;;;;;;;;;;5045289;28;20029;-78
2023/12/20 07:35:15;;;;;;;6.13;3.17;;;;;;;;;;5045268;28;20029;-78
2023/12/20 07:37:40;;;;;;;10.68;3.17;;;;;;;;;;5037717;28;20025;-78
2023/12/20 07:40:06;;;;;;;4.57;2.35;;;;;;;;;;5044516;28;20026;-78
2023/12/20 07:42:31;;;;;;;6.47;2.30;;;;;;;;;;5048340;28;20032;-78
2023/12/20 07:44:56;;;;;;;7.90;2.45;;;;;;;;;;5046327;28;20029;-78
2023/12/20 07:47:21;;;;;;;5.75;2.60;;;;;;;;;;5045660;28;20109;-78
2023/12/20 07:49:48;;;;;;;7.25;2.50;;;;;;;;;;5050746;28;20033;-78
2023/12/20 07:52:13;;;;;;;6.10;2.40;;;;;;;;;;5047852;28;20036;-78
2023/12/20 07:54:38;;;;;;;6.10;2.55;;;;;;;;;;5048939;28;20025;-78
2023/12/20 07:57:04;;;;;;;4.75;2.30;;;;;;;;;;5045382;28;20026;-78
2023/12/20 07:59:29;;;;;;;10.43;3.35;;;;;;;;;;5044081;28;20026;-78
2023/12/20 08:01:54;;;;;;;6.65;2.80;;;;;;;;;;5048777;28;20033;-78
2023/12/20 08:04:19;;;;;;;10.25;3.75;;;;;;;;;;5045535;28;20094;-78
2023/12/20 08:06:44;;;;;;;6.53;2.80;;;;;;;;;;5051571;28;20025;-77
2023/12/20 08:09:10;;;;;;;6.70;2.95;;;;;;;;;;5046348;28;20108;-78
2023/12/20 08:11:35;;;;;;;5.05;3.13;;;;;;;;;;5050181;28;20044;-78
2023/12/20 08:14:00;;;;;;;7.78;3.08;;;;;;;;;;5046816;28;20025;-78
2023/12/20 08:16:25;;;;;;;5.85;3.20;;;;;;;;;;5046624;28;20521;-77
2023/12/20 08:18:51;;;;;;;6.45;3.85;;;;;;;;;;5042300;28;20111;-77
2023/12/20 08:21:16;;;;;;;6.35;3.17;;;;;;;;;;5047301;28;20025;-77
2023/12/20 08:23:41;;;;;;;6.00;3.67;;;;;;;;;;5046596;28;20036;-77
2023/12/20 08:26:07;;;;;;;7.10;3.15;;;;;;;;;;5041982;28;20033;-77
2023/12/20 08:28:32;;;;;;;5.93;3.28;;;;;;;;;;5045579;28;20032;-77
2023/12/20 08:30:57;;;;;;;5.22;3.22;;;;;;;;;;5039472;28;20045;-78
2023/12/20 08:33:23;;;;;;;5.10;2.90;;;;;;;;;;5039604;28;20053;-78
2023/12/20 08:35:48;;;;;;;4.68;2.67;;;;;;;;;;5044370;28;20100;-77
2023/12/20 08:38:14;;;;;;;5.60;2.85;;;;;;;;;;5042636;28;20503;-77
2023/12/20 08:40:39;;;;;;;5.75;2.00;;;;;;;;;;5045301;28;20021;-77
2023/12/20 08:43:04;;;;;;;5.32;2.10;;;;;;;;;;5047724;28;20691;-77
2023/12/20 08:45:29;;;;;;;6.05;1.90;;;;;;;;;;5043921;28;20111;-77
2023/12/20 08:47:55;;;;;;;5.47;1.67;;;;;;;;;;5046026;28;20670;-77
2023/12/20 08:50:20;;;;;;;3.75;1.55;;;;;;;;;;5045478;28;20057;-77
2023/12/20 08:52:45;;;;;;;7.03;1.65;;;;;;;;;;5044214;28;20028;-77
2023/12/20 08:55:10;;;;;;;4.32;1.60;;;;;;;;;;5039925;28;20021;-77
2023/12/20 08:57:36;;;;;;;5.10;1.60;;;;;;;;;;5041546;28;20036;-77
2023/12/20 09:00:01;;;;;;;3.22;0.90;;;;;;;;;;5040558;28;20104;-77
2023/12/20 09:02:26;;;;;;;4.57;1.30;;;;;;;;;;5040306;28;20032;-77
2023/12/20 09:04:51;;;;;;;3.75;1.10;;;;;;;;;;5042562;28;20031;-77
2023/12/20 09:07:26;;;;;;;4.00;0.90;;;;;;;;;;5042727;28;20033;-77
2023/12/20 09:09:51;;;;;;;3.10;1.20;;;;;;;;;;5040651;28;20033;-77
2023/12/20 09:12:20;;;;;;;3.83;0.93;;;;;;;;;;5038588;28;20405;-77
2023/12/20 09:14:46;;;;;;;3.38;1.00;;;;;;;;;;5041283;28;20108;-77
2023/12/20 09:17:11;;;;;;;4.03;0.70;;;;;;;;;;5040189;28;20167;-77
2023/12/20 09:19:37;;;;;;;3.42;0.93;;;;;;;;;;5048146;28;20041;-77
2023/12/20 09:22:02;;;;;;;4.72;0.70;;;;;;;;;;5032823;28;20041;-76
2023/12/20 09:24:28;;;;;;;2.63;0.85;;;;;;;;;;5037193;28;20037;-76
2023/12/20 09:26:53;;;;;;;6.15;1.30;;;;;;;;;;5034686;28;20045;-77
2023/12/20 09:29:19;;;;;;;4.60;1.30;;;;;;;;;;5032882;28;20034;-77
2023/12/20 09:31:46;;;;;;;2.95;0.77;;;;;;;;;;5031628;28;20562;-77
2023/12/20 09:34:11;;;;;;;4.10;0.93;;;;;;;;;;5038632;28;20018;-77
2023/12/20 09:36:36;;;;;;;5.72;1.33;;;;;;;;;;5040204;28;20082;-78
2023/12/20 09:39:01;;;;;;;6.25;1.10;;;;;;;;;;5038381;28;20041;-76
2023/12/20 09:41:28;;;;;;;3.83;0.73;;;;;;;;;;5035540;28;20084;-76
2023/12/20 09:43:54;;;;;;;4.97;1.05;;;;;;;;;;5040779;28;20022;-76
2023/12/20 09:46:24;;;;;;;5.00;0.95;;;;;;;;;;5052376;28;20037;-76
2023/12/20 09:48:49;;;;;;;4.00;0.70;;;;;;;;;;5049142;28;20049;-76
2023/12/20 09:51:15;;;;;;;3.03;0.70;;;;;;;;;;5036481;28;20106;-76
2023/12/20 09:53:42;;;;;;;5.55;1.48;;;;;;;;;;5042408;28;20051;-76
2023/12/20 09:56:07;;;;;;;2.22;0.60;;;;;;;;;;5035016;28;20025;-77
2023/12/20 09:58:33;;;;;;;2.47;0.90;;;;;;;;;;5033535;28;20401;-76
2023/12/20 10:00:58;;;;;;;4.95;0.93;;;;;;;;;;5041025;28;20685;-76
2023/12/20 10:03:24;;;;;;;7.47;1.60;;;;;;;;;;5038549;28;20378;-77
2023/12/20 10:05:52;;;;;;;9.38;1.42;;;;;;;;;;5030981;28;20030;-76
2023/12/20 10:08:17;;;;;;;5.40;0.93;;;;;;;;;;5031595;28;20057;-76
2023/12/20 10:10:42;;;;;;;4.68;0.85;;;;;;;;;;5032036;28;20464;-77
2023/12/20 10:13:11;;;;;;;7.65;1.17;;;;;;;;;;5035803;28;20025;-77
2023/12/20 10:15:36;;;;;;;5.88;1.42;;;;;;;;;;5032394;28;20034;-77
2023/12/20 10:18:02;;;;;;;3.72;0.75;;;;;;;;;;5039021;28;20549;-77
2023/12/20 10:20:28;;;;;;;6.68;1.10;;;;;;;;;;5035839;28;20029;-77
2023/12/20 10:22:54;;;;;;;7.45;1.00;;;;;;;;;;5039392;28;20120;-77
2023/12/20 10:25:22;;;;;;;5.38;1.27;;;;;;;;;;5035053;28;20148;-77
2023/12/20 10:27:47;;;;;;;3.85;0.70;;;;;;;;;;5035591;28;20029;-76
2023/12/20 10:30:14;;;;;;;3.45;0.90;;;;;;;;;;5030496;28;20030;-76
2023/12/20 10:32:39;;;;;;;5.25;1.20;;;;;;;;;;5034735;28;20083;-77
2023/12/20 10:35:04;;;;;;;5.93;1.13;;;;;;;;;;5036953;28;20018;-77
2023/12/20 10:37:29;;;;;;;5.72;1.00;;;;;;;;;;5032109;28;20512;-76
2023/12/20 10:39:58;;;;;;;4.60;1.20;;;;;;;;;;5041825;28;20036;-77
2023/12/20 10:42:25;;;;;;;4.15;0.70;;;;;;;;;;5037369;28;20040;-77
2023/12/20 10:44:51;;;;;;;2.83;0.82;;;;;;;;;;5036195;28;20040;-77
2023/12/20 10:47:17;;;;;;;4.47;1.05;;;;;;;;;;5030810;28;20033;-77
2023/12/20 10:49:42;;;;;;;7.75;1.73;;;;;;;;;;5032811;28;20120;-77
2023/12/20 10:52:08;;;;;;;8.30;1.63;;;;;;;;;;5033294;28;20037;-77
2023/12/20 10:54:33;;;;;;;2.60;0.90;;;;;;;;;;5033963;28;20075;-77
2023/12/20 10:56:59;;;;;;;7.13;1.48;;;;;;;;;;5032583;28;20033;-77
2023/12/20 10:59:27;;;;;;;6.10;1.42;;;;;;;;;;5032596;28;20089;-77
2023/12/20 11:01:54;;;;;;;2.50;0.68;;;;;;;;;;5032550;28;20029;-76
2023/12/20 11:04:23;;;;;;;4.13;1.20;;;;;;;;;;5038267;28;20025;-75
2023/12/20 11:06:53;;;;;;;7.70;1.33;;;;;;;;;;5034830;28;20033;-78
2023/12/20 11:09:23;;;;;;;7.25;1.25;;;;;;;;;;5031324;28;20048;-77
2023/12/20 11:11:56;;;;;;;5.00;1.50;;;;;;;;;;5035270;28;20029;-77
2023/12/20 11:14:41;;;;;;;4.40;1.10;;;;;;;;;;5038585;28;20031;-78
2023/12/20 11:17:16;;;;;;;8.40;1.50;;;;;;;;;;5034625;28;20053;-77
2023/12/20 11:19:57;;;;;;;6.65;1.23;;;;;;;;;;5035501;28;20079;-76
2023/12/20 11:22:26;;;;;;;6.00;1.70;;;;;;;;;;5034070;28;20029;-77
2023/12/20 11:24:52;;;;;;;7.07;1.10;;;;;;;;;;5036632;28;20026;-76
2023/12/20 11:27:18;;;;;;;4.85;1.30;;;;;;;;;;5032072;28;20045;-77
2023/12/20 11:29:51;;;;;;;2.50;0.98;;;;;;;;;;5030655;28;20027;-77
2023/12/20 11:32:28;;;;;;;4.35;1.35;;;;;;;;;;5035252;28;20039;-77
2023/12/20 11:34:58;;;;;;;5.15;1.63;;;;;;;;;;5035525;28;20022;-76
2023/12/20 11:37:28;;;;;;;5.78;1.30;;;;;;;;;;5030003;28;20068;-77
2023/12/20 11:39:55;;;;;;;4.82;1.38;;;;;;;;;;5030799;28;20025;-77
2023/12/20 11:42:20;;;;;;;4.47;1.33;;;;;;;;;;5033797;28;20039;-76
2023/12/20 11:44:45;;;;;;;5.78;1.23;;;;;;;;;;5035567;28;20030;-76
2023/12/20 11:47:12;;;;;;;4.18;1.10;;;;;;;;;;5030362;28;20655;-77
2023/12/20 11:49:37;;;;;;;5.00;1.30;;;;;;;;;;5033514;28;20041;-77
2023/12/20 11:52:02;;;;;;;6.85;1.42;;;;;;;;;;5031065;28;20033;-77
2023/12/20 11:54:29;;;;;;;5.13;1.30;;;;;;;;;;5034300;28;20218;-77
2023/12/20 11:56:55;;;;;;;9.30;2.10;;;;;;;;;;5030101;28;20425;-76
2023/12/20 11:59:20;;;;;;;5.55;1.42;;;;;;;;;;5030351;28;20033;-76
2023/12/20 12:01:49;;;;;;;4.93;1.35;;;;;;;;;;5030521;28;20426;-77
2023/12/20 12:04:15;;;;;;;8.13;1.63;;;;;;;;;;5040785;28;21107;-77
2023/12/20 12:06:40;;;;;;;4.82;1.40;;;;;;;;;;5019658;28;20036;-77
2023/12/20 12:09:06;;;;;;;6.38;1.77;;;;;;;;;;5029362;28;20026;-77
2023/12/20 12:11:31;;;;;;;4.78;1.05;;;;;;;;;;5028964;28;20029;-78
2023/12/20 12:13:56;;;;;;;4.25;1.23;;;;;;;;;;5034441;28;20393;-77
2023/12/20 12:16:21;;;;;;;8.60;1.08;;;;;;;;;;5030971;28;20057;-77
2023/12/20 12:18:54;;;;;;;3.90;1.05;;;;;;;;;;5030317;28;20029;-77
2023/12/20 12:21:20;;;;;;;9.02;1.13;;;;;;;;;;5030404;28;20040;-77
2023/12/20 12:23:45;;;;;;;6.93;1.45;;;;;;;;;;5034397;28;20022;-77
2023/12/20 12:26:11;;;;;;;8.95;1.10;;;;;;;;;;5030572;28;20490;-78
2023/12/20 12:28:37;;;;;;;6.90;1.17;;;;;;;;;;5037007;28;20035;-77
2023/12/20 12:31:02;;;;;;;6.68;1.15;;;;;;;;;;5034075;28;20026;-77
2023/12/20 12:33:27;;;;;;;6.07;1.52;;;;;;;;;;5037862;28;20029;-77
2023/12/20 12:35:53;;;;;;;5.28;1.63;;;;;;;;;;5043319;28;20037;-77
2023/12/20 12:38:21;;;;;;;4.75;1.23;;;;;;;;;;5037431;28;20151;-77
2023/12/20 12:40:46;;;;;;;6.65;1.00;;;;;;;;;;5033552;28;20079;-77
2023/12/20 12:43:12;;;;;;;10.35;1.75;;;;;;;;;;5035863;28;21204;-77
2023/12/20 12:45:37;;;;;;;4.72;1.45;;;;;;;;;;5038949;28;20112;-77
2023/12/20 12:48:03;;;;;;;5.00;1.38;;;;;;;;;;5033751;28;20034;-77
2023/12/20 12:50:28;;;;;;;4.43;1.02;;;;;;;;;;5033340;28;20029;-78
2023/12/20 12:52:53;;;;;;;4.63;1.13;;;;;;;;;;5036391;28;20044;-77
2023/12/20 12:55:19;;;;;;;5.32;1.20;;;;;;;;;;5037705;28;20061;-77
2023/12/20 12:57:44;;;;;;;4.75;0.95;;;;;;;;;;5033508;28;20026;-77
2023/12/20 13:00:09;;;;;;;5.75;1.13;;;;;;;;;;5033366;28;20021;-77
2023/12/20 13:02:34;;;;;;;5.00;1.08;;;;;;;;;;5033135;28;20481;-77
2023/12/20 13:05:01;;;;;;;5.68;1.10;;;;;;;;;;5037109;28;20097;-77
2023/12/20 13:07:26;;;;;;;4.43;1.30;;;;;;;;;;5035291;28;20036;-78
2023/12/20 13:09:51;;;;;;;6.43;1.05;;;;;;;;;;5033064;28;20428;-77
2023/12/20 13:12:17;;;;;;;4.30;1.10;;;;;;;;;;5033071;28;20025;-78
2023/12/20 13:14:42;;;;;;;3.08;1.10;;;;;;;;;;5035938;28;20048;-77
2023/12/20 13:17:07;;;;;;;10.95;1.15;;;;;;;;;;5036169;28;20470;-77
2023/12/20 13:19:32;;;;;;;8.73;1.30;;;;;;;;;;5032114;28;20041;-77
2023/12/20 13:22:00;;;;;;;4.45;1.73;;;;;;;;;;5032928;28;20041;-77
2023/12/20 13:24:25;;;;;;;6.00;1.13;;;;;;;;;;5032355;28;20082;-77
2023/12/20 13:26:51;;;;;;;4.47;0.95;;;;;;;;;;5033667;28;20489;-77
2023/12/20 13:29:16;;;;;;;3.83;1.13;;;;;;;;;;5038616;28;20025;-77
2023/12/20 13:31:41;;;;;;;4.80;1.15;;;;;;;;;;5035096;28;20079;-77
2023/12/20 13:34:07;;;;;;;5.80;0.85;;;;;;;;;;5032547;28;20030;-77
2023/12/20 13:36:32;;;;;;;5.93;0.98;;;;;;;;;;5038641;28;20112;-77
2023/12/20 13:38:57;;;;;;;5.82;1.10;;;;;;;;;;5038480;28;20051;-77
2023/12/20 13:41:22;;;;;;;3.50;0.80;;;;;;;;;;5032489;28;20029;-77
2023/12/20 13:43:48;;;;;;;3.90;0.70;;;;;;;;;;5032259;28;20425;-77
2023/12/20 13:46:14;;;;;;;5.55;1.30;;;;;;;;;;5039432;28;20025;-77
2023/12/20 13:48:39;;;;;;;3.10;0.88;;;;;;;;;;5038622;28;20084;-78
2023/12/20 13:51:04;;;;;;;3.70;0.90;;;;;;;;;;5032705;28;20026;-78
2023/12/20 13:53:29;;;;;;;5.85;1.20;;;;;;;;;;5033137;28;20445;-78
2023/12/20 13:55:54;;;;;;;7.15;1.00;;;;;;;;;;5036676;28;20057;-78
2023/12/20 13:58:20;;;;;;;3.72;1.00;;;;;;;;;;5036865;28;20037;-78
2023/12/20 14:00:45;;;;;;;5.53;0.88;;;;;;;;;;5032323;28;20053;-78
2023/12/20 14:03:10;;;;;;;3.80;0.80;;;;;;;;;;5035734;28;20029;-78
2023/12/20 14:05:35;;;;;;;5.13;1.00;;;;;;;;;;5038086;28;20060;-79
2023/12/20 14:08:01;;;;;;;7.63;1.42;;;;;;;;;;5035645;28;20497;-76
2023/12/20 14:10:26;;;;;;;3.28;1.17;;;;;;;;;;5031944;28;20025;-77
2023/12/20 14:12:52;;;;;;;3.88;1.10;;;;;;;;;;5038861;28;20029;-77
2023/12/20 14:15:17;;;;;;;2.65;1.00;;;;;;;;;;5038780;28;20029;-76
2023/12/20 14:17:42;;;;;;;6.10;1.17;;;;;;;;;;5037183;28;20032;-77
2023/12/20 14:20:08;;;;;;;3.85;1.10;;;;;;;;;;5031989;28;20029;-77
2023/12/20 14:22:33;;;;;;;3.10;0.77;;;;;;;;;;5031853;28;20587;-78
2023/12/20 14:24:58;;;;;;;6.30;1.42;;;;;;;;;;5033665;28;20041;-77
2023/12/20 14:27:27;;;;;;;4.65;1.00;;;;;;;;;;5034741;28;20037;-77
2023/12/20 14:29:52;;;;;;;3.85;1.10;;;;;;;;;;5036804;28;20485;-77
2023/12/20 14:32:17;;;;;;;2.97;0.75;;;;;;;;;;5031477;28;20044;-77
2023/12/20 14:34:43;;;;;;;5.05;1.08;;;;;;;;;;5035353;28;20017;-76